sensor_id;sensor_type;location;lat;lon;timestamp;pressure;altitude;pressure_sealevel;temperature;humidity
36630;BME280;36256;42.154;23.002;2022-12-07T00:00:13;97226.47;;;8.06;100.00
36630;BME280;36256;42.154;23.002;2022-12-07T00:02:39;97221.56;;;8.10;100.00
36630;BME280;36256;42.154;23.002;2022-12-07T00:05:06;97227.94;;;8.10;100.00
36630;BME280;36256;42.154;23.002;2022-12-07T00:07:32;97227.03;;;8.13;100.00
36630;BME280;36256;42.154;23.002;2022-12-07T00:09:59;97230.09;;;8.19;100.00
36630;BME280;36256;42.154;23.002;2022-12-07T00:12:26;97228.00;;;8.23;100.00
36630;BME280;36256;42.154;23.002;2022-12-07T00:14:53;97229.06;;;8.29;100.00
36630;BME280;36256;42.154;23.002;2022-12-07T00:17:19;97227.13;;;8.26;100.00
36630;BME280;36256;42.154;23.002;2022-12-07T00:19:46;97238.13;;;8.33;100.00
36630;BME280;36256;42.154;23.002;2022-12-07T00:22:12;97234.88;;;8.34;100.00
36630;BME280;36256;42.154;23.002;2022-12-07T00:24:39;97236.56;;;8.32;100.00
36630;BME280;36256;42.154;23.002;2022-12-07T00:27:05;97230.09;;;8.35;100.00
36630;BME280;36256;42.154;23.002;2022-12-07T00:29:31;97235.59;;;8.38;100.00
36630;BME280;36256;42.154;23.002;2022-12-07T00:31:58;97231.13;;;8.41;100.00
36630;BME280;36256;42.154;23.002;2022-12-07T00:34:24;97223.38;;;8.32;100.00
36630;BME280;36256;42.154;23.002;2022-12-07T00:36:51;97226.41;;;8.22;100.00
36630;BME280;36256;42.154;23.002;2022-12-07T00:39:17;97233.78;;;8.16;100.00
36630;BME280;36256;42.154;23.002;2022-12-07T00:41:44;97232.56;;;8.17;100.00
36630;BME280;36256;42.154;23.002;2022-12-07T00:44:10;97238.16;;;8.17;100.00
36630;BME280;36256;42.154;23.002;2022-12-07T00:46:37;97230.28;;;8.12;100.00
36630;BME280;36256;42.154;23.002;2022-12-07T00:49:03;97221.03;;;8.15;100.00
36630;BME280;36256;42.154;23.002;2022-12-07T00:51:30;97221.72;;;8.19;100.00
36630;BME280;36256;42.154;23.002;2022-12-07T00:53:56;97222.06;;;8.21;100.00
36630;BME280;36256;42.154;23.002;2022-12-07T00:56:25;97221.72;;;8.19;100.00
36630;BME280;36256;42.154;23.002;2022-12-07T00:58:59;97220.34;;;8.27;100.00
36630;BME280;36256;42.154;23.002;2022-12-07T01:01:26;97217.00;;;8.32;100.00
36630;BME280;36256;42.154;23.002;2022-12-07T01:03:53;97208.91;;;8.50;100.00
36630;BME280;36256;42.154;23.002;2022-12-07T01:06:20;97212.38;;;8.54;100.00
36630;BME280;36256;42.154;23.002;2022-12-07T01:08:47;97214.84;;;8.52;100.00
36630;BME280;36256;42.154;23.002;2022-12-07T01:11:15;97215.94;;;8.42;100.00
36630;BME280;36256;42.154;23.002;2022-12-07T01:13:42;97218.28;;;8.43;100.00
36630;BME280;36256;42.154;23.002;2022-12-07T01:16:11;97213.69;;;8.49;100.00
36630;BME280;36256;42.154;23.002;2022-12-07T01:18:38;97213.81;;;8.46;100.00
36630;BME280;36256;42.154;23.002;2022-12-07T01:21:05;97208.41;;;8.39;100.00
36630;BME280;36256;42.154;23.002;2022-12-07T01:23:33;97205.97;;;8.41;100.00
36630;BME280;36256;42.154;23.002;2022-12-07T01:26:01;97208.06;;;8.37;100.00
36630;BME280;36256;42.154;23.002;2022-12-07T01:28:28;97202.69;;;8.30;100.00
36630;BME280;36256;42.154;23.002;2022-12-07T01:31:05;97201.22;;;8.25;100.00
36630;BME280;36256;42.154;23.002;2022-12-07T01:33:33;97194.31;;;8.30;100.00
36630;BME280;36256;42.154;23.002;2022-12-07T01:36:07;97189.75;;;8.20;100.00
36630;BME280;36256;42.154;23.002;2022-12-07T01:38:34;97187.63;;;8.24;100.00
36630;BME280;36256;42.154;23.002;2022-12-07T01:41:01;97194.47;;;8.23;100.00
36630;BME280;36256;42.154;23.002;2022-12-07T01:43:28;97196.31;;;8.29;100.00
36630;BME280;36256;42.154;23.002;2022-12-07T01:45:55;97189.41;;;8.18;100.00
36630;BME280;36256;42.154;23.002;2022-12-07T01:48:35;97197.44;;;8.16;100.00
36630;BME280;36256;42.154;23.002;2022-12-07T01:51:05;97193.72;;;8.06;100.00
36630;BME280;36256;42.154;23.002;2022-12-07T01:53:33;97194.13;;;8.05;100.00
36630;BME280;36256;42.154;23.002;2022-12-07T01:56:01;97192.81;;;8.09;100.00
36630;BME280;36256;42.154;23.002;2022-12-07T01:58:27;97192.53;;;8.20;100.00
36630;BME280;36256;42.154;23.002;2022-12-07T02:00:54;97183.81;;;8.18;100.00
36630;BME280;36256;42.154;23.002;2022-12-07T02:03:37;97178.66;;;8.16;100.00
36630;BME280;36256;42.154;23.002;2022-12-07T02:06:04;97178.50;;;8.07;100.00
36630;BME280;36256;42.154;23.002;2022-12-07T02:08:32;97173.72;;;8.08;100.00
36630;BME280;36256;42.154;23.002;2022-12-07T02:10:59;97178.50;;;8.07;100.00
36630;BME280;36256;42.154;23.002;2022-12-07T02:13:26;97178.28;;;8.02;100.00
36630;BME280;36256;42.154;23.002;2022-12-07T02:18:43;97175.81;;;8.04;100.00
36630;BME280;36256;42.154;23.002;2022-12-07T02:26:43;97170.56;;;8.06;100.00
36630;BME280;36256;42.154;23.002;2022-12-07T02:29:35;97168.22;;;8.04;100.00
36630;BME280;36256;42.154;23.002;2022-12-07T02:34:58;97168.31;;;8.01;100.00
36630;BME280;36256;42.154;23.002;2022-12-07T02:42:46;97166.47;;;8.10;100.00
36630;BME280;36256;42.154;23.002;2022-12-07T02:45:15;97160.47;;;7.96;100.00
36630;BME280;36256;42.154;23.002;2022-12-07T02:47:43;97152.44;;;7.98;100.00
36630;BME280;36256;42.154;23.002;2022-12-07T02:50:11;97164.81;;;7.97;100.00
36630;BME280;36256;42.154;23.002;2022-12-07T02:52:38;97145.25;;;7.97;100.00
36630;BME280;36256;42.154;23.002;2022-12-07T02:55:04;97153.91;;;8.02;100.00
36630;BME280;36256;42.154;23.002;2022-12-07T02:57:40;97155.72;;;8.09;100.00
36630;BME280;36256;42.154;23.002;2022-12-07T03:00:11;97150.66;;;8.04;100.00
36630;BME280;36256;42.154;23.002;2022-12-07T03:13:24;97156.31;;;7.87;100.00
36630;BME280;36256;42.154;23.002;2022-12-07T03:18:28;97157.50;;;7.86;100.00
36630;BME280;36256;42.154;23.002;2022-12-07T03:20:57;97156.47;;;7.80;100.00
36630;BME280;36256;42.154;23.002;2022-12-07T03:23:26;97149.66;;;7.81;100.00
36630;BME280;36256;42.154;23.002;2022-12-07T03:25:54;97146.53;;;7.79;100.00
36630;BME280;36256;42.154;23.002;2022-12-07T03:28:27;97152.78;;;7.83;100.00
36630;BME280;36256;42.154;23.002;2022-12-07T03:33:28;97153.50;;;7.87;100.00
36630;BME280;36256;42.154;23.002;2022-12-07T03:38:37;97157.41;;;7.90;100.00
36630;BME280;36256;42.154;23.002;2022-12-07T03:41:09;97150.09;;;7.96;100.00
36630;BME280;36256;42.154;23.002;2022-12-07T03:43:37;97143.59;;;7.99;100.00
36630;BME280;36256;42.154;23.002;2022-12-07T03:54:31;97155.91;;;8.02;100.00
36630;BME280;36256;42.154;23.002;2022-12-07T03:57:01;97160.19;;;8.06;100.00
36630;BME280;36256;42.154;23.002;2022-12-07T03:59:28;97156.06;;;8.11;100.00
36630;BME280;36256;42.154;23.002;2022-12-07T04:01:56;97146.72;;;8.17;100.00
36630;BME280;36256;42.154;23.002;2022-12-07T04:04:23;97146.25;;;8.19;100.00
36630;BME280;36256;42.154;23.002;2022-12-07T04:06:50;97140.00;;;8.15;100.00
36630;BME280;36256;42.154;23.002;2022-12-07T04:09:17;97140.97;;;8.08;100.00
36630;BME280;36256;42.154;23.002;2022-12-07T04:11:44;97141.16;;;8.01;100.00
36630;BME280;36256;42.154;23.002;2022-12-07T04:14:10;97139.09;;;7.89;100.00
36630;BME280;36256;42.154;23.002;2022-12-07T04:16:53;97130.38;;;7.87;100.00
36630;BME280;36256;42.154;23.002;2022-12-07T04:19:20;97127.31;;;7.81;100.00
36630;BME280;36256;42.154;23.002;2022-12-07T04:21:47;97137.78;;;7.77;100.00
36630;BME280;36256;42.154;23.002;2022-12-07T04:24:14;97133.97;;;7.71;100.00
36630;BME280;36256;42.154;23.002;2022-12-07T04:26:41;97138.00;;;7.70;100.00
36630;BME280;36256;42.154;23.002;2022-12-07T04:29:08;97135.38;;;7.63;100.00
36630;BME280;36256;42.154;23.002;2022-12-07T04:31:35;97143.78;;;7.63;100.00
36630;BME280;36256;42.154;23.002;2022-12-07T04:34:02;97136.63;;;7.62;100.00
36630;BME280;36256;42.154;23.002;2022-12-07T04:36:29;97139.66;;;7.68;100.00
36630;BME280;36256;42.154;23.002;2022-12-07T04:38:55;97140.53;;;7.65;100.00
36630;BME280;36256;42.154;23.002;2022-12-07T04:41:22;97141.50;;;7.74;100.00
36630;BME280;36256;42.154;23.002;2022-12-07T04:43:56;97136.94;;;7.80;100.00
36630;BME280;36256;42.154;23.002;2022-12-07T04:46:24;97143.56;;;7.86;100.00
36630;BME280;36256;42.154;23.002;2022-12-07T04:48:51;97143.03;;;7.91;100.00
36630;BME280;36256;42.154;23.002;2022-12-07T04:51:19;97151.75;;;7.93;100.00
36630;BME280;36256;42.154;23.002;2022-12-07T04:53:45;97150.16;;;7.92;100.00
36630;BME280;36256;42.154;23.002;2022-12-07T04:56:12;97142.13;;;7.94;100.00
36630;BME280;36256;42.154;23.002;2022-12-07T04:58:39;97144.50;;;7.96;100.00
36630;BME280;36256;42.154;23.002;2022-12-07T05:01:05;97142.91;;;7.95;100.00
36630;BME280;36256;42.154;23.002;2022-12-07T05:03:32;97150.16;;;7.92;100.00
36630;BME280;36256;42.154;23.002;2022-12-07T05:05:58;97153.41;;;7.91;100.00
36630;BME280;36256;42.154;23.002;2022-12-07T05:08:25;97148.22;;;7.77;100.00
36630;BME280;36256;42.154;23.002;2022-12-07T05:10:51;97152.66;;;7.74;100.00
36630;BME280;36256;42.154;23.002;2022-12-07T05:13:18;97139.56;;;7.71;100.00
36630;BME280;36256;42.154;23.002;2022-12-07T05:15:46;97141.03;;;7.76;100.00
36630;BME280;36256;42.154;23.002;2022-12-07T05:18:12;97140.59;;;7.77;100.00
36630;BME280;36256;42.154;23.002;2022-12-07T05:20:39;97139.38;;;7.78;100.00
36630;BME280;36256;42.154;23.002;2022-12-07T05:23:08;97134.13;;;7.80;100.00
36630;BME280;36256;42.154;23.002;2022-12-07T05:25:34;97142.41;;;7.84;100.00
36630;BME280;36256;42.154;23.002;2022-12-07T05:28:01;97141.28;;;7.81;100.00
36630;BME280;36256;42.154;23.002;2022-12-07T05:30:27;97146.19;;;7.77;100.00
36630;BME280;36256;42.154;23.002;2022-12-07T05:32:54;97143.94;;;7.72;100.00
36630;BME280;36256;42.154;23.002;2022-12-07T05:35:20;97142.69;;;7.73;100.00
36630;BME280;36256;42.154;23.002;2022-12-07T05:37:47;97150.22;;;7.76;100.00
36630;BME280;36256;42.154;23.002;2022-12-07T05:40:13;97146.09;;;7.81;100.00
36630;BME280;36256;42.154;23.002;2022-12-07T05:42:41;97150.56;;;7.78;100.00
36630;BME280;36256;42.154;23.002;2022-12-07T05:45:08;97150.38;;;7.85;100.00
36630;BME280;36256;42.154;23.002;2022-12-07T05:47:34;97153.84;;;7.89;100.00
36630;BME280;36256;42.154;23.002;2022-12-07T05:50:01;97151.06;;;7.89;100.00
36630;BME280;36256;42.154;23.002;2022-12-07T05:52:28;97150.38;;;7.85;100.00
36630;BME280;36256;42.154;23.002;2022-12-07T05:54:54;97140.22;;;7.91;100.00
36630;BME280;36256;42.154;23.002;2022-12-07T05:57:20;97147.38;;;7.92;100.00
36630;BME280;36256;42.154;23.002;2022-12-07T05:59:47;97145.47;;;7.89;100.00
36630;BME280;36256;42.154;23.002;2022-12-07T06:02:14;97151.06;;;7.89;100.00
36630;BME280;36256;42.154;23.002;2022-12-07T06:04:43;97144.00;;;7.85;100.00
36630;BME280;36256;42.154;23.002;2022-12-07T06:07:11;97147.22;;;7.83;100.00
36630;BME280;36256;42.154;23.002;2022-12-07T06:09:37;97146.53;;;7.79;100.00
36630;BME280;36256;42.154;23.002;2022-12-07T06:12:04;97147.41;;;7.76;100.00
36630;BME280;36256;42.154;23.002;2022-12-07T06:14:50;97150.22;;;7.76;100.00
36630;BME280;36256;42.154;23.002;2022-12-07T06:17:16;97145.41;;;7.77;100.00
36630;BME280;36256;42.154;23.002;2022-12-07T06:19:43;97152.03;;;7.83;100.00
36630;BME280;36256;42.154;23.002;2022-12-07T06:22:09;97149.38;;;7.92;100.00
36630;BME280;36256;42.154;23.002;2022-12-07T06:24:38;97152.78;;;8.00;100.00
36630;BME280;36256;42.154;23.002;2022-12-07T06:27:05;97150.78;;;8.00;100.00
36630;BME280;36256;42.154;23.002;2022-12-07T06:29:32;97155.38;;;8.07;100.00
36630;BME280;36256;42.154;23.002;2022-12-07T06:31:58;97157.97;;;8.14;100.00
36630;BME280;36256;42.154;23.002;2022-12-07T06:34:25;97150.59;;;8.20;100.00
36630;BME280;36256;42.154;23.002;2022-12-07T06:36:52;97162.84;;;8.26;100.00
36630;BME280;36256;42.154;23.002;2022-12-07T06:39:21;97158.03;;;8.26;100.00
36630;BME280;36256;42.154;23.002;2022-12-07T06:41:48;97154.59;;;8.35;100.00
36630;BME280;36256;42.154;23.002;2022-12-07T06:44:15;97156.28;;;8.32;100.00
36630;BME280;36256;42.154;23.002;2022-12-07T06:46:41;97161.78;;;8.36;100.00
36630;BME280;36256;42.154;23.002;2022-12-07T06:49:08;97153.41;;;8.36;100.00
36630;BME280;36256;42.154;23.002;2022-12-07T06:51:34;97157.41;;;8.35;100.00
36630;BME280;36256;42.154;23.002;2022-12-07T06:54:09;97162.19;;;8.34;100.00
36630;BME280;36256;42.154;23.002;2022-12-07T06:56:36;97166.13;;;8.37;100.00
36630;BME280;36256;42.154;23.002;2022-12-07T06:59:03;97162.84;;;8.26;100.00
36630;BME280;36256;42.154;23.002;2022-12-07T07:01:32;97165.91;;;8.31;100.00
36630;BME280;36256;42.154;23.002;2022-12-07T07:03:59;97163.91;;;8.32;100.00
36630;BME280;36256;42.154;23.002;2022-12-07T07:06:25;97161.25;;;8.25;100.00
36630;BME280;36256;42.154;23.002;2022-12-07T07:08:52;97158.66;;;8.34;100.00
36630;BME280;36256;42.154;23.002;2022-12-07T07:11:18;97160.00;;;8.42;100.00
36630;BME280;36256;42.154;23.002;2022-12-07T07:13:45;97158.34;;;8.44;100.00
36630;BME280;36256;42.154;23.002;2022-12-07T07:16:11;97163.13;;;8.44;100.00
36630;BME280;36256;42.154;23.002;2022-12-07T07:18:38;97155.78;;;8.50;100.00
36630;BME280;36256;42.154;23.002;2022-12-07T07:21:04;97162.72;;;8.58;100.00
36630;BME280;36256;42.154;23.002;2022-12-07T07:23:31;97160.53;;;8.78;100.00
36630;BME280;36256;42.154;23.002;2022-12-07T07:25:57;97155.38;;;8.89;100.00
36630;BME280;36256;42.154;23.002;2022-12-07T07:28:24;97161.88;;;8.86;100.00
36630;BME280;36256;42.154;23.002;2022-12-07T07:30:50;97162.22;;;8.76;100.00
36630;BME280;36256;42.154;23.002;2022-12-07T07:33:17;97153.16;;;8.84;100.00
36630;BME280;36256;42.154;23.002;2022-12-07T07:35:43;97154.72;;;8.98;100.00
36630;BME280;36256;42.154;23.002;2022-12-07T07:38:10;97152.72;;;8.98;100.00
36630;BME280;36256;42.154;23.002;2022-12-07T07:40:36;97152.47;;;8.80;100.00
36630;BME280;36256;42.154;23.002;2022-12-07T07:43:03;97150.03;;;8.82;100.00
36630;BME280;36256;42.154;23.002;2022-12-07T07:45:29;97155.16;;;8.96;100.00
36630;BME280;36256;42.154;23.002;2022-12-07T07:47:56;97153.72;;;9.17;100.00
36630;BME280;36256;42.154;23.002;2022-12-07T07:50:22;97148.22;;;9.13;100.00
36630;BME280;36256;42.154;23.002;2022-12-07T07:52:49;97154.63;;;9.14;100.00
36630;BME280;36256;42.154;23.002;2022-12-07T07:55:15;97153.94;;;9.22;100.00
36630;BME280;36256;42.154;23.002;2022-12-07T07:57:42;97152.59;;;9.39;100.00
36630;BME280;36256;42.154;23.002;2022-12-07T08:00:14;97152.13;;;9.54;100.00
36630;BME280;36256;42.154;23.002;2022-12-07T08:02:41;97148.41;;;9.69;100.00
36630;BME280;36256;42.154;23.002;2022-12-07T08:05:09;97143.84;;;9.84;100.00
36630;BME280;36256;42.154;23.002;2022-12-07T08:07:36;97146.16;;;10.11;100.00
36630;BME280;36256;42.154;23.002;2022-12-07T08:10:03;97152.25;;;10.31;99.82
36630;BME280;36256;42.154;23.002;2022-12-07T08:12:30;97150.56;;;10.55;98.96
36630;BME280;36256;42.154;23.002;2022-12-07T08:14:57;97146.47;;;10.78;95.68
36630;BME280;36256;42.154;23.002;2022-12-07T08:17:23;97136.41;;;10.89;93.81
36630;BME280;36256;42.154;23.002;2022-12-07T08:19:49;97133.38;;;11.05;92.38
36630;BME280;36256;42.154;23.002;2022-12-07T08:22:16;97128.44;;;11.19;91.50
36630;BME280;36256;42.154;23.002;2022-12-07T08:24:42;97125.75;;;11.15;91.85
36630;BME280;36256;42.154;23.002;2022-12-07T08:27:09;97136.56;;;11.26;91.97
36630;BME280;36256;42.154;23.002;2022-12-07T08:29:36;97123.78;;;11.25;91.13
36630;BME280;36256;42.154;23.002;2022-12-07T08:32:02;97133.16;;;11.31;91.35
36630;BME280;36256;42.154;23.002;2022-12-07T08:34:34;97127.22;;;11.29;92.03
36630;BME280;36256;42.154;23.002;2022-12-07T08:37:01;97126.31;;;11.32;90.60
36630;BME280;36256;42.154;23.002;2022-12-07T08:39:28;97125.72;;;11.46;91.52
36630;BME280;36256;42.154;23.002;2022-12-07T08:41:57;97127.81;;;11.63;89.95
36630;BME280;36256;42.154;23.002;2022-12-07T08:44:24;97124.53;;;11.65;89.06
36630;BME280;36256;42.154;23.002;2022-12-07T08:46:52;97120.19;;;11.73;88.47
36630;BME280;36256;42.154;23.002;2022-12-07T08:49:22;97128.94;;;11.75;86.98
36630;BME280;36256;42.154;23.002;2022-12-07T08:51:50;97112.41;;;12.22;85.68
36630;BME280;36256;42.154;23.002;2022-12-07T08:54:17;97111.56;;;13.27;78.99
36630;BME280;36256;42.154;23.002;2022-12-07T08:56:44;97103.75;;;14.02;74.99
36630;BME280;36256;42.154;23.002;2022-12-07T08:59:12;97098.81;;;14.50;71.94
36630;BME280;36256;42.154;23.002;2022-12-07T09:01:40;97096.13;;;14.84;69.33
36630;BME280;36256;42.154;23.002;2022-12-07T09:04:06;97085.97;;;15.07;67.08
36630;BME280;36256;42.154;23.002;2022-12-07T09:06:33;97083.47;;;14.51;69.09
36630;BME280;36256;42.154;23.002;2022-12-07T09:09:00;97078.56;;;14.51;70.10
36630;BME280;36256;42.154;23.002;2022-12-07T09:11:27;97084.03;;;14.40;70.28
36630;BME280;36256;42.154;23.002;2022-12-07T09:13:54;97083.66;;;14.24;70.51
36630;BME280;36256;42.154;23.002;2022-12-07T09:16:21;97088.47;;;13.70;73.36
36630;BME280;36256;42.154;23.002;2022-12-07T09:18:47;97075.25;;;13.76;73.68
36630;BME280;36256;42.154;23.002;2022-12-07T09:21:14;97078.97;;;13.82;74.21
36630;BME280;36256;42.154;23.002;2022-12-07T09:23:41;97077.91;;;13.80;72.37
36630;BME280;36256;42.154;23.002;2022-12-07T09:26:09;97078.19;;;13.82;72.64
36630;BME280;36256;42.154;23.002;2022-12-07T09:28:36;97069.91;;;13.78;72.41
36630;BME280;36256;42.154;23.002;2022-12-07T09:31:03;97073.47;;;13.41;73.03
36630;BME280;36256;42.154;23.002;2022-12-07T09:33:57;97078.25;;;13.49;73.82
36630;BME280;36256;42.154;23.002;2022-12-07T09:36:24;97058.75;;;13.36;72.17
36630;BME280;36256;42.154;23.002;2022-12-07T09:38:51;97063.00;;;13.32;72.99
36630;BME280;36256;42.154;23.002;2022-12-07T09:41:18;97067.94;;;13.46;73.33
36630;BME280;36256;42.154;23.002;2022-12-07T09:43:44;97058.44;;;13.58;72.91
36630;BME280;36256;42.154;23.002;2022-12-07T09:46:13;97059.47;;;13.46;72.90
36630;BME280;36256;42.154;23.002;2022-12-07T09:48:42;97059.59;;;13.52;72.31
36630;BME280;36256;42.154;23.002;2022-12-07T09:51:19;97054.38;;;13.59;71.80
36630;BME280;36256;42.154;23.002;2022-12-07T09:53:51;97044.97;;;13.62;71.69
36630;BME280;36256;42.154;23.002;2022-12-07T09:56:18;97040.25;;;13.68;71.07
36630;BME280;36256;42.154;23.002;2022-12-07T09:58:45;97041.09;;;13.98;70.29
36630;BME280;36256;42.154;23.002;2022-12-07T10:03:40;97035.91;;;14.35;68.19
36630;BME280;36256;42.154;23.002;2022-12-07T10:06:10;97035.91;;;14.35;68.07
36630;BME280;36256;42.154;23.002;2022-12-07T10:08:38;97037.63;;;14.17;68.68
36630;BME280;36256;42.154;23.002;2022-12-07T10:11:07;97034.78;;;14.17;68.87
36630;BME280;36256;42.154;23.002;2022-12-07T10:13:38;97030.81;;;14.09;69.14
36630;BME280;36256;42.154;23.002;2022-12-07T10:16:05;97021.66;;;14.14;68.20
36630;BME280;36256;42.154;23.002;2022-12-07T10:18:36;97019.16;;;14.16;69.00
36630;BME280;36256;42.154;23.002;2022-12-07T10:23:39;97002.38;;;14.13;68.85
36630;BME280;36256;42.154;23.002;2022-12-07T10:26:20;97005.75;;;14.41;68.19
36630;BME280;36256;42.154;23.002;2022-12-07T10:28:47;96998.84;;;14.42;68.01
36630;BME280;36256;42.154;23.002;2022-12-07T10:31:15;96992.72;;;14.29;68.60
36630;BME280;36256;42.154;23.002;2022-12-07T10:33:56;96996.59;;;14.46;67.50
36630;BME280;36256;42.154;23.002;2022-12-07T10:36:24;96992.78;;;14.34;67.63
36630;BME280;36256;42.154;23.002;2022-12-07T10:39:02;96998.84;;;14.42;67.59
36630;BME280;36256;42.154;23.002;2022-12-07T10:41:29;96996.38;;;14.64;67.81
36630;BME280;36256;42.154;23.002;2022-12-07T10:43:56;96988.38;;;14.77;67.05
36630;BME280;36256;42.154;23.002;2022-12-07T10:59:43;96996.72;;;13.98;69.76
36630;BME280;36256;42.154;23.002;2022-12-07T11:04:58;96987.16;;;14.49;67.56
36630;BME280;36256;42.154;23.002;2022-12-07T11:10:21;96979.66;;;14.16;69.51
36630;BME280;36256;42.154;23.002;2022-12-07T11:13:01;96980.88;;;13.86;69.88
36630;BME280;36256;42.154;23.002;2022-12-07T11:15:49;96971.28;;;13.69;70.92
36630;BME280;36256;42.154;23.002;2022-12-07T11:19:05;96972.19;;;13.75;71.34
36630;BME280;36256;42.154;23.002;2022-12-07T11:21:23;96964.59;;;13.81;70.79
36630;BME280;36256;42.154;23.002;2022-12-07T11:24:08;96964.81;;;13.92;70.01
36630;BME280;36256;42.154;23.002;2022-12-07T11:26:52;96961.53;;;14.08;69.88
36630;BME280;36256;42.154;23.002;2022-12-07T11:29:33;96952.38;;;14.13;69.84
36630;BME280;36256;42.154;23.002;2022-12-07T11:37:25;96924.56;;;14.50;67.42
36630;BME280;36256;42.154;23.002;2022-12-07T11:40:00;96917.78;;;14.42;66.50
36630;BME280;36256;42.154;23.002;2022-12-07T11:42:39;96922.50;;;14.22;67.52
36630;BME280;36256;42.154;23.002;2022-12-07T11:45:24;96923.09;;;14.11;67.37
36630;BME280;36256;42.154;23.002;2022-12-07T11:52:49;96924.38;;;13.95;68.27
36630;BME280;36256;42.154;23.002;2022-12-07T11:58:04;96933.88;;;13.83;68.93
36630;BME280;36256;42.154;23.002;2022-12-07T12:00:38;96926.69;;;13.82;69.31
36630;BME280;36256;42.154;23.002;2022-12-07T12:03:12;96935.38;;;13.93;68.72
36630;BME280;36256;42.154;23.002;2022-12-07T12:05:41;96924.16;;;13.84;68.95
36630;BME280;36256;42.154;23.002;2022-12-07T12:08:13;96938.44;;;13.66;70.17
36630;BME280;36256;42.154;23.002;2022-12-07T12:16:44;96922.91;;;13.32;73.35
36630;BME280;36256;42.154;23.002;2022-12-07T12:19:23;96918.72;;;13.28;73.30
36630;BME280;36256;42.154;23.002;2022-12-07T12:21:55;96920.63;;;13.22;73.82
36630;BME280;36256;42.154;23.002;2022-12-07T12:24:25;96904.78;;;13.24;74.09
36630;BME280;36256;42.154;23.002;2022-12-07T12:27:01;96908.09;;;13.23;74.56
36630;BME280;36256;42.154;23.002;2022-12-07T12:34:59;96899.34;;;13.21;75.03
36630;BME280;36256;42.154;23.002;2022-12-07T12:37:44;96898.31;;;13.09;75.67
36630;BME280;36256;42.154;23.002;2022-12-07T12:42:45;96897.47;;;13.18;75.76
36630;BME280;36256;42.154;23.002;2022-12-07T12:45:30;96883.69;;;13.20;75.71
36630;BME280;36256;42.154;23.002;2022-12-07T12:50:24;96881.53;;;13.38;74.97
36630;BME280;36256;42.154;23.002;2022-12-07T12:52:53;96876.50;;;13.57;74.58
36630;BME280;36256;42.154;23.002;2022-12-07T12:55:25;96875.34;;;13.78;73.03
36630;BME280;36256;42.154;23.002;2022-12-07T13:00:40;96872.16;;;13.85;72.53
36630;BME280;36256;42.154;23.002;2022-12-07T13:03:16;96874.19;;;13.99;72.06
36630;BME280;36256;42.154;23.002;2022-12-07T13:05:47;96867.16;;;14.24;71.99
36630;BME280;36256;42.154;23.002;2022-12-07T13:08:16;96859.25;;;14.28;69.58
36630;BME280;36256;42.154;23.002;2022-12-07T13:10:45;96871.13;;;14.17;70.05
36630;BME280;36256;42.154;23.002;2022-12-07T13:23:22;96857.44;;;14.10;70.06
36630;BME280;36256;42.154;23.002;2022-12-07T13:25:54;96861.41;;;14.18;69.59
36630;BME280;36256;42.154;23.002;2022-12-07T13:28:22;96855.88;;;14.09;69.59
36630;BME280;36256;42.154;23.002;2022-12-07T13:33:24;96851.81;;;14.10;69.32
36630;BME280;36256;42.154;23.002;2022-12-07T13:35:53;96852.56;;;13.96;69.81
36630;BME280;36256;42.154;23.002;2022-12-07T13:38:38;96855.31;;;13.91;69.55
36630;BME280;36256;42.154;23.002;2022-12-07T13:41:17;96861.16;;;13.87;69.49
36630;BME280;36256;42.154;23.002;2022-12-07T13:46:17;96856.47;;;13.70;70.48
36630;BME280;36256;42.154;23.002;2022-12-07T13:48:49;96857.34;;;13.76;70.14
36630;BME280;36256;42.154;23.002;2022-12-07T13:51:17;96859.22;;;13.64;70.18
36630;BME280;36256;42.154;23.002;2022-12-07T13:53:51;96863.47;;;13.60;71.08
36630;BME280;36256;42.154;23.002;2022-12-07T13:56:20;96864.22;;;13.60;70.98
36630;BME280;36256;42.154;23.002;2022-12-07T13:58:47;96864.72;;;13.59;71.13
36630;BME280;36256;42.154;23.002;2022-12-07T14:01:13;96864.63;;;13.53;71.68
36630;BME280;36256;42.154;23.002;2022-12-07T14:03:40;96872.00;;;13.51;71.61
36630;BME280;36256;42.154;23.002;2022-12-07T14:06:13;96881.53;;;13.53;72.16
36630;BME280;36256;42.154;23.002;2022-12-07T14:08:40;96875.31;;;13.49;72.62
36630;BME280;36256;42.154;23.002;2022-12-07T14:11:09;96882.34;;;13.54;72.84
36630;BME280;36256;42.154;23.002;2022-12-07T14:13:53;96877.72;;;13.42;73.48
36630;BME280;36256;42.154;23.002;2022-12-07T14:16:23;96886.66;;;13.40;74.17
36630;BME280;36256;42.154;23.002;2022-12-07T14:18:51;96897.22;;;13.30;74.90
36630;BME280;36256;42.154;23.002;2022-12-07T14:21:19;96902.09;;;13.30;75.68
36630;BME280;36256;42.154;23.002;2022-12-07T14:23:47;96899.56;;;13.32;76.10
36630;BME280;36256;42.154;23.002;2022-12-07T14:26:28;96892.38;;;13.31;76.93
36630;BME280;36256;42.154;23.002;2022-12-07T14:29:18;96893.34;;;13.28;77.14
36630;BME280;36256;42.154;23.002;2022-12-07T14:31:41;96896.81;;;13.23;78.00
36630;BME280;36256;42.154;23.002;2022-12-07T14:34:11;96902.22;;;13.12;78.79
36630;BME280;36256;42.154;23.002;2022-12-07T14:36:37;96894.97;;;12.96;80.32
36630;BME280;36256;42.154;23.002;2022-12-07T14:39:04;96902.13;;;12.97;80.88
36630;BME280;36256;42.154;23.002;2022-12-07T14:41:38;96897.00;;;12.96;81.35
36630;BME280;36256;42.154;23.002;2022-12-07T14:44:20;96907.84;;;12.88;81.80
36630;BME280;36256;42.154;23.002;2022-12-07T14:46:51;96894.72;;;12.85;82.59
36630;BME280;36256;42.154;23.002;2022-12-07T14:49:38;96900.69;;;12.78;83.21
36630;BME280;36256;42.154;23.002;2022-12-07T14:52:04;96900.69;;;12.78;83.48
36630;BME280;36256;42.154;23.002;2022-12-07T14:54:51;96909.97;;;12.70;84.00